createdAt,value
2018-06-12T00:00:20.246Z,20.58
2018-06-12T00:02:49.649Z,20.54
2018-06-12T00:05:18.841Z,20.49
2018-06-12T00:07:48.129Z,20.63
2018-06-12T00:10:17.292Z,20.72
2018-06-12T00:12:47.138Z,20.83
2018-06-12T00:15:17.457Z,20.83
2018-06-12T00:17:46.867Z,20.83
2018-06-12T00:20:16.488Z,20.85
2018-06-12T00:22:46.326Z,20.84
2018-06-12T00:25:15.841Z,20.84
2018-06-12T00:27:47.002Z,20.79
2018-06-12T00:30:17.239Z,20.75
2018-06-12T00:32:46.861Z,20.81
2018-06-12T00:35:16.089Z,20.63
2018-06-12T00:37:45.438Z,20.58
2018-06-12T00:40:14.880Z,20.64
2018-06-12T00:42:44.168Z,20.74
2018-06-12T00:45:13.890Z,20.74
2018-06-12T00:47:43.739Z,20.79
2018-06-12T00:50:13.297Z,20.81
2018-06-12T00:52:42.643Z,20.83
2018-06-12T00:55:12.113Z,20.81
2018-06-12T00:57:41.574Z,20.70
2018-06-12T01:00:10.912Z,20.74
2018-06-12T01:02:41.484Z,20.77
2018-06-12T01:05:10.919Z,20.75
2018-06-12T01:07:40.186Z,20.74
2018-06-12T01:10:09.432Z,20.72
2018-06-12T01:12:38.651Z,20.64
2018-06-12T01:15:07.814Z,20.61
2018-06-12T01:17:37.043Z,20.54
2018-06-12T01:20:06.339Z,20.55
2018-06-12T01:22:35.740Z,20.48
2018-06-12T01:25:05.533Z,20.52
2018-06-12T01:27:34.856Z,20.48
2018-06-12T01:30:04.199Z,20.54
2018-06-12T01:32:33.911Z,20.57
2018-06-12T01:35:03.379Z,20.38
2018-06-12T01:37:32.885Z,20.62
2018-06-12T01:40:02.505Z,20.52
2018-06-12T01:42:31.788Z,20.47
2018-06-12T01:45:00.973Z,20.45
2018-06-12T01:47:30.506Z,20.46
2018-06-12T01:50:00.804Z,20.48
2018-06-12T01:52:30.114Z,20.49
2018-06-12T01:54:59.426Z,20.50
2018-06-12T01:57:28.721Z,20.46
2018-06-12T01:59:58.221Z,20.29
2018-06-12T02:02:27.523Z,20.35
2018-06-12T02:04:57.015Z,20.40
2018-06-12T02:07:26.439Z,20.38
2018-06-12T02:09:55.722Z,20.36
2018-06-12T02:12:24.931Z,20.42
2018-06-12T02:14:54.125Z,20.48
2018-06-12T02:17:23.321Z,20.49
2018-06-12T02:19:52.455Z,20.47
2018-06-12T02:22:21.621Z,20.45
2018-06-12T02:24:50.812Z,20.51
2018-06-12T02:27:20.001Z,20.54
2018-06-12T02:29:49.212Z,20.46
2018-06-12T02:32:18.413Z,20.38
2018-06-12T02:34:47.696Z,20.39
2018-06-12T02:37:16.990Z,20.40
2018-06-12T02:39:46.247Z,20.39
2018-06-12T02:42:15.498Z,20.36
2018-06-12T02:44:44.690Z,20.36
2018-06-12T02:47:13.898Z,20.35
2018-06-12T02:49:43.116Z,20.34
2018-06-12T02:52:13.202Z,20.32
2018-06-12T02:54:42.498Z,20.29
2018-06-12T02:57:11.719Z,20.32
2018-06-12T02:59:40.904Z,20.34
2018-06-12T03:02:10.099Z,20.31
2018-06-12T03:04:39.296Z,20.22
2018-06-12T03:07:08.604Z,20.22
2018-06-12T03:09:37.945Z,20.19
2018-06-12T03:12:07.259Z,20.20
2018-06-12T03:14:36.617Z,20.20
2018-06-12T03:17:06.115Z,20.19
2018-06-12T03:19:35.467Z,20.25
2018-06-12T03:22:04.610Z,20.10
2018-06-12T03:24:34.513Z,20.12
2018-06-12T03:27:03.802Z,20.03
2018-06-12T03:29:33.147Z,20.02
2018-06-12T03:32:05.789Z,20.01
2018-06-12T03:34:37.448Z,20.00
2018-06-12T03:37:06.847Z,19.99
2018-06-12T03:39:40.087Z,19.88
2018-06-12T03:42:11.332Z,19.93
2018-06-12T03:44:40.674Z,19.94
2018-06-12T03:47:10.460Z,19.97
2018-06-12T03:49:39.834Z,19.79
2018-06-12T03:52:09.222Z,19.57
2018-06-12T03:54:39.269Z,19.59
2018-06-12T03:57:08.440Z,19.62
2018-06-12T03:59:37.645Z,19.68
2018-06-12T04:02:06.935Z,19.76
2018-06-12T04:04:36.231Z,19.79
2018-06-12T04:07:05.332Z,19.76
2018-06-12T04:09:34.530Z,19.71
2018-06-12T04:12:03.785Z,19.70
2018-06-12T04:14:33.142Z,19.66
2018-06-12T04:17:02.342Z,19.53
2018-06-12T04:19:31.629Z,19.52
2018-06-12T04:22:00.938Z,19.57
2018-06-12T04:24:30.210Z,19.57
2018-06-12T04:26:59.639Z,19.59
2018-06-12T04:29:29.651Z,19.64
2018-06-12T04:31:59.346Z,19.63
2018-06-12T04:34:28.855Z,19.67
2018-06-12T04:36:58.045Z,19.67
2018-06-12T04:39:27.321Z,19.63
2018-06-12T04:41:56.480Z,19.63
2018-06-12T04:44:25.659Z,19.67
2018-06-12T04:46:54.961Z,19.73
2018-06-12T04:49:24.171Z,19.73
2018-06-12T04:51:53.746Z,19.70
2018-06-12T04:54:22.893Z,19.68
2018-06-12T04:56:52.119Z,19.74
2018-06-12T04:59:21.214Z,19.62
2018-06-12T05:01:57.519Z,19.66
2018-06-12T05:04:26.753Z,19.41
2018-06-12T05:06:56.049Z,19.69
2018-06-12T05:09:25.213Z,19.66
2018-06-12T05:11:54.699Z,19.67
2018-06-12T05:14:23.950Z,19.61
2018-06-12T05:16:53.354Z,19.62
2018-06-12T05:19:22.524Z,19.70
2018-06-12T05:21:52.506Z,19.54
2018-06-12T05:24:22.482Z,19.58
2018-06-12T05:26:51.706Z,19.66
2018-06-12T05:29:20.903Z,19.71
2018-06-12T05:31:50.055Z,19.76
2018-06-12T05:34:19.252Z,19.64
2018-06-12T05:36:48.331Z,19.60
2018-06-12T05:39:17.685Z,19.71
2018-06-12T05:41:46.851Z,19.56
2018-06-12T05:44:16.007Z,19.48
2018-06-12T05:46:45.140Z,19.46
2018-06-12T05:49:14.230Z,19.48
2018-06-12T05:51:43.426Z,19.46
2018-06-12T05:54:13.481Z,19.51
2018-06-12T05:56:42.689Z,19.50
2018-06-12T05:59:11.962Z,19.48
2018-06-12T06:01:41.222Z,19.45
2018-06-12T06:04:10.619Z,19.49
2018-06-12T06:06:40.141Z,19.59
2018-06-12T06:09:09.464Z,19.58
2018-06-12T06:11:38.733Z,19.57
2018-06-12T06:14:08.599Z,19.61
2018-06-12T06:16:37.881Z,19.71
2018-06-12T06:19:07.550Z,19.70
2018-06-12T06:21:36.749Z,19.73
2018-06-12T06:24:06.046Z,19.79
2018-06-12T06:26:35.156Z,19.83
2018-06-12T06:29:04.331Z,19.68
2018-06-12T06:31:36.817Z,19.68
2018-06-12T06:34:06.819Z,19.61
2018-06-12T06:36:37.835Z,19.48
2018-06-12T06:39:08.465Z,19.58
2018-06-12T06:41:37.577Z,19.48
2018-06-12T06:44:07.987Z,19.47
2018-06-12T06:46:37.534Z,19.36
2018-06-12T06:49:12.162Z,19.33
2018-06-12T06:51:41.831Z,19.09
2018-06-12T06:54:10.993Z,19.07
2018-06-12T06:56:40.264Z,19.24
2018-06-12T06:59:09.522Z,19.39
2018-06-12T07:01:38.781Z,19.48
2018-06-12T07:04:08.381Z,19.48
2018-06-12T07:06:38.796Z,19.46
2018-06-12T07:09:09.366Z,19.49
2018-06-12T07:11:41.038Z,19.54
2018-06-12T07:14:10.311Z,19.62
2018-06-12T07:16:39.661Z,19.62
2018-06-12T07:19:08.868Z,19.42
2018-06-12T07:21:38.289Z,19.28
2018-06-12T07:24:08.106Z,19.23
2018-06-12T07:26:37.406Z,19.39
2018-06-12T07:29:06.861Z,19.43
2018-06-12T07:31:36.418Z,19.43
2018-06-12T07:34:06.274Z,19.38
2018-06-12T07:36:35.575Z,19.40
2018-06-12T07:39:08.154Z,19.43
2018-06-12T07:41:37.492Z,19.49
2018-06-12T07:44:06.730Z,19.46
2018-06-12T07:46:36.014Z,19.43
2018-06-12T07:49:05.349Z,19.31
2018-06-12T07:51:34.762Z,19.30
2018-06-12T07:54:04.028Z,19.26
2018-06-12T07:56:33.184Z,19.20
2018-06-12T07:59:02.387Z,19.17
2018-06-12T08:01:31.850Z,19.12
2018-06-12T08:04:01.053Z,19.11
2018-06-12T08:06:30.204Z,19.00
2018-06-12T08:08:59.584Z,18.68
2018-06-12T08:11:28.819Z,18.78
2018-06-12T08:13:58.287Z,18.84
2018-06-12T08:16:27.449Z,18.61
2018-06-12T08:18:56.727Z,18.68
2018-06-12T08:21:26.020Z,18.70
2018-06-12T08:23:55.300Z,18.67
2018-06-12T08:26:24.554Z,18.72
2018-06-12T08:28:53.782Z,18.71
2018-06-12T08:31:24.606Z,18.76
2018-06-12T08:33:54.766Z,18.69
2018-06-12T08:36:24.038Z,18.71
2018-06-12T08:38:53.324Z,18.71
2018-06-12T08:41:22.549Z,18.77
2018-06-12T08:43:51.947Z,18.78
2018-06-12T08:46:21.298Z,18.83
2018-06-12T08:48:51.906Z,18.93
2018-06-12T08:51:21.204Z,18.99
2018-06-12T08:53:50.307Z,19.03
2018-06-12T08:56:19.530Z,19.03
2018-06-12T08:58:48.720Z,19.17
2018-06-12T09:01:18.021Z,19.33
2018-06-12T09:03:47.337Z,19.43
2018-06-12T09:06:16.628Z,19.15
2018-06-12T09:08:45.997Z,19.43
2018-06-12T09:11:15.990Z,19.43
2018-06-12T09:13:45.434Z,19.42
2018-06-12T09:16:14.703Z,19.47
2018-06-12T09:18:43.988Z,19.49
2018-06-12T09:21:13.291Z,19.61
2018-06-12T09:23:43.645Z,19.63
2018-06-12T09:26:12.826Z,19.63
2018-06-12T09:28:42.170Z,19.75
2018-06-12T09:31:11.781Z,19.81
2018-06-12T09:33:41.463Z,19.82
2018-06-12T09:36:16.419Z,19.84
2018-06-12T09:38:45.641Z,19.87
2018-06-12T09:41:14.900Z,19.94
2018-06-12T09:43:44.093Z,19.95
2018-06-12T09:46:13.500Z,19.83
2018-06-12T09:48:42.858Z,19.93
2018-06-12T09:51:12.064Z,20.01
2018-06-12T09:53:41.239Z,20.11
2018-06-12T09:56:10.593Z,20.18
2018-06-12T09:58:39.698Z,20.26
2018-06-12T10:01:20.957Z,20.35
2018-06-12T10:03:52.269Z,20.20
2018-06-12T10:06:21.494Z,20.05
2018-06-12T10:08:50.604Z,19.88
2018-06-12T10:11:19.913Z,19.78
2018-06-12T10:13:48.968Z,19.84
2018-06-12T10:16:18.238Z,20.03
2018-06-12T10:18:47.393Z,20.10
2018-06-12T10:21:16.553Z,20.12
2018-06-12T10:23:45.922Z,20.15
2018-06-12T10:26:15.335Z,20.10
2018-06-12T10:28:44.652Z,20.07
2018-06-12T10:31:15.080Z,20.17
2018-06-12T10:33:45.071Z,20.35
2018-06-12T10:36:14.416Z,19.17
2018-06-12T10:38:43.884Z,20.36
2018-06-12T10:41:13.056Z,20.51
2018-06-12T10:43:42.841Z,20.71
2018-06-12T10:46:12.061Z,20.58
2018-06-12T10:48:42.532Z,20.56
2018-06-12T10:51:11.943Z,20.54
2018-06-12T10:53:41.465Z,20.47
2018-06-12T10:56:10.670Z,20.74
2018-06-12T10:58:40.009Z,20.88
2018-06-12T11:01:09.682Z,20.93
2018-06-12T11:03:39.376Z,20.89
2018-06-12T11:06:08.634Z,20.90
2018-06-12T11:08:37.859Z,20.95
2018-06-12T11:11:07.182Z,20.91
2018-06-12T11:13:36.433Z,21.04
2018-06-12T11:18:48.067Z,21.03
2018-06-12T11:21:18.014Z,21.17
2018-06-12T11:23:47.820Z,21.21
2018-06-12T11:26:17.242Z,21.28
2018-06-12T11:28:46.793Z,21.29
2018-06-12T11:31:16.822Z,21.24
2018-06-12T11:33:47.195Z,20.83
2018-06-12T11:36:16.347Z,20.87
2018-06-12T11:38:45.997Z,20.95
2018-06-12T11:41:16.067Z,21.09
2018-06-12T11:43:45.444Z,21.11
2018-06-12T11:46:14.685Z,21.22
2018-06-12T11:48:44.075Z,21.03
2018-06-12T11:51:14.018Z,20.96
2018-06-12T11:53:44.282Z,20.90
2018-06-12T11:56:13.780Z,20.79
2018-06-12T11:58:43.421Z,20.80
2018-06-12T12:01:13.227Z,20.70
2018-06-12T12:03:42.503Z,20.43
2018-06-12T12:06:12.956Z,20.56
2018-06-12T12:08:42.303Z,20.65
2018-06-12T12:11:14.638Z,20.64
2018-06-12T12:13:45.147Z,20.71
2018-06-12T12:16:16.110Z,20.39
2018-06-12T12:18:45.353Z,20.39
2018-06-12T12:21:15.178Z,20.40
2018-06-12T12:23:44.444Z,20.48
2018-06-12T12:26:13.833Z,20.58
2018-06-12T12:28:43.200Z,20.68
2018-06-12T12:31:13.478Z,20.64
2018-06-12T12:33:42.868Z,20.65
2018-06-12T12:36:12.272Z,20.64
2018-06-12T12:38:42.386Z,20.48
2018-06-12T12:41:11.973Z,20.31
2018-06-12T12:43:41.392Z,20.22
2018-06-12T12:46:13.577Z,20.19
2018-06-12T12:48:43.019Z,20.15
2018-06-12T12:51:13.657Z,20.11
2018-06-12T12:53:43.843Z,20.17
2018-06-12T12:56:15.366Z,20.07
2018-06-12T12:58:44.648Z,20.15
2018-06-12T13:01:13.877Z,20.10
2018-06-12T13:03:43.125Z,20.10
2018-06-12T13:06:12.930Z,20.07
2018-06-12T13:08:42.253Z,19.19
2018-06-12T13:11:11.527Z,19.87
2018-06-12T13:13:40.706Z,19.61
2018-06-12T13:16:09.894Z,19.66
2018-06-12T13:18:39.214Z,19.78
2018-06-12T13:21:08.534Z,19.82
2018-06-12T13:23:37.903Z,19.77
2018-06-12T13:26:07.476Z,19.86
2018-06-12T13:28:36.871Z,20.00
2018-06-12T13:31:06.270Z,20.15
2018-06-12T13:33:36.135Z,20.10
2018-06-12T13:36:05.963Z,20.10
2018-06-12T13:38:35.401Z,20.01
2018-06-12T13:41:05.643Z,19.83
2018-06-12T13:43:34.980Z,19.85
2018-06-12T13:46:04.264Z,19.85
2018-06-12T13:48:33.585Z,19.82
2018-06-12T13:51:02.899Z,19.86
2018-06-12T13:53:32.538Z,19.90
2018-06-12T13:56:01.930Z,19.89
2018-06-12T13:58:31.143Z,19.91
2018-06-12T14:01:01.159Z,19.93
2018-06-12T14:03:30.384Z,19.91
2018-06-12T14:05:59.576Z,19.73
2018-06-12T14:08:28.712Z,19.64
2018-06-12T14:11:05.223Z,19.53
2018-06-12T14:13:34.479Z,19.61
2018-06-12T14:16:04.539Z,19.67
2018-06-12T14:18:36.523Z,19.73
2018-06-12T14:21:07.409Z,19.74
2018-06-12T14:23:37.841Z,19.69
2018-06-12T14:26:08.431Z,19.68
2018-06-12T14:28:39.949Z,19.47
2018-06-12T14:31:09.386Z,19.34
2018-06-12T14:33:38.709Z,19.38
2018-06-12T14:36:08.050Z,19.50
2018-06-12T14:38:37.480Z,19.58
2018-06-12T14:41:08.219Z,19.18
2018-06-12T14:43:38.176Z,19.61
2018-06-12T14:46:07.953Z,19.48
2018-06-12T14:48:38.089Z,19.64
2018-06-12T14:51:10.019Z,19.71
2018-06-12T14:53:39.624Z,19.39
2018-06-12T14:56:09.864Z,19.38
2018-06-12T14:58:39.075Z,19.49
2018-06-12T15:01:10.243Z,19.13
2018-06-12T15:03:40.286Z,19.27
2018-06-12T15:06:10.824Z,19.30
2018-06-12T15:08:42.820Z,19.32
2018-06-12T15:11:15.066Z,19.32
2018-06-12T15:13:46.382Z,19.40
2018-06-12T15:16:16.684Z,19.41
2018-06-12T15:18:48.575Z,19.47
2018-06-12T15:21:18.806Z,19.44
2018-06-12T15:23:48.285Z,19.39
2018-06-12T15:26:17.954Z,19.31
2018-06-12T15:28:47.476Z,19.26
2018-06-12T15:31:16.976Z,19.23
2018-06-12T15:33:46.414Z,19.24
2018-06-12T15:36:15.608Z,19.21
2018-06-12T15:38:44.909Z,19.24
2018-06-12T15:41:14.067Z,19.36
2018-06-12T15:43:43.271Z,19.24
2018-06-12T15:46:12.449Z,18.97
2018-06-12T15:48:41.689Z,19.20
2018-06-12T15:51:10.888Z,19.10
2018-06-12T15:53:40.796Z,19.03
2018-06-12T15:56:09.930Z,19.31
2018-06-12T15:58:39.274Z,19.56
2018-06-12T16:01:08.498Z,19.64
2018-06-12T16:03:38.129Z,19.61
2018-06-12T16:06:07.367Z,19.79
2018-06-12T16:08:36.633Z,20.03
2018-06-12T16:11:05.858Z,20.13
2018-06-12T16:13:35.002Z,20.58
2018-06-12T16:16:04.146Z,20.90
2018-06-12T16:18:33.580Z,20.67
2018-06-12T16:21:03.732Z,20.59
2018-06-12T16:23:32.917Z,20.71
2018-06-12T16:26:02.383Z,20.80
2018-06-12T16:28:32.396Z,20.55
2018-06-12T16:31:01.626Z,20.36
2018-06-12T16:33:30.854Z,20.65
2018-06-12T16:36:00.165Z,20.91
2018-06-12T16:38:29.964Z,21.19
2018-06-12T16:40:59.405Z,21.25
2018-06-12T16:43:29.411Z,20.90
2018-06-12T16:45:58.830Z,20.35
2018-06-12T16:48:28.810Z,20.18
2018-06-12T16:51:03.968Z,20.06
2018-06-12T16:53:33.182Z,20.04
2018-06-12T16:56:02.356Z,19.85
2018-06-12T16:58:31.641Z,19.75
2018-06-12T17:01:00.827Z,19.49
2018-06-12T17:03:29.981Z,19.33
2018-06-12T17:05:59.088Z,19.28
2018-06-12T17:08:28.460Z,19.29
2018-06-12T17:10:57.677Z,19.20
2018-06-12T17:13:26.835Z,16.45
2018-06-12T17:15:56.034Z,19.33
2018-06-12T17:18:25.262Z,19.40
2018-06-12T17:20:54.467Z,19.24
2018-06-12T17:23:23.632Z,19.49
2018-06-12T17:25:52.749Z,19.51
2018-06-12T17:28:21.833Z,19.45
2018-06-12T17:30:50.880Z,19.58
2018-06-12T17:33:20.028Z,19.46
2018-06-12T17:35:49.170Z,19.34
2018-06-12T17:38:18.422Z,18.27
2018-06-12T17:40:47.625Z,19.46
2018-06-12T17:43:16.918Z,19.48
2018-06-12T17:45:46.170Z,19.54
2018-06-12T17:48:15.410Z,19.51
2018-06-12T17:50:44.564Z,19.30
2018-06-12T17:53:13.698Z,19.29
2018-06-12T17:55:42.858Z,19.21
2018-06-12T17:58:12.072Z,19.14
2018-06-12T18:00:41.354Z,19.11
2018-06-12T18:03:10.629Z,19.10
2018-06-12T18:05:39.877Z,19.17
2018-06-12T18:08:08.956Z,19.21
2018-06-12T18:10:38.134Z,19.16
2018-06-12T18:13:07.282Z,18.95
2018-06-12T18:15:36.552Z,18.83
2018-06-12T18:18:05.885Z,18.68
2018-06-12T18:20:35.090Z,18.68
2018-06-12T18:23:04.541Z,18.70
2018-06-12T18:25:34.107Z,18.72
2018-06-12T18:28:03.323Z,18.75
2018-06-12T18:30:32.510Z,18.73
2018-06-12T18:33:01.704Z,18.66
2018-06-12T18:35:30.921Z,18.63
2018-06-12T18:38:00.116Z,18.69
2018-06-12T18:40:29.242Z,18.71
2018-06-12T18:42:58.440Z,18.68
2018-06-12T18:45:29.271Z,18.64
2018-06-12T18:47:58.587Z,18.68
2018-06-12T18:50:27.715Z,18.77
2018-06-12T18:52:56.854Z,18.88
2018-06-12T18:55:26.001Z,18.88
2018-06-12T18:57:55.193Z,18.87
2018-06-12T19:00:24.379Z,18.79
2018-06-12T19:02:53.530Z,18.84
2018-06-12T19:05:22.667Z,18.90
2018-06-12T19:07:51.819Z,19.05
2018-06-12T19:10:20.953Z,18.92
2018-06-12T19:12:50.600Z,18.72
2018-06-12T19:15:19.806Z,18.66
2018-06-12T19:17:49.017Z,18.61
2018-06-12T19:20:18.304Z,18.49
2018-06-12T19:22:47.671Z,18.44
2018-06-12T19:25:16.886Z,18.41
2018-06-12T19:27:46.428Z,18.47
2018-06-12T19:30:15.717Z,18.46
2018-06-12T19:32:44.938Z,18.39
2018-06-12T19:35:14.251Z,18.47
2018-06-12T19:37:43.446Z,18.41
2018-06-12T19:40:12.630Z,18.29
2018-06-12T19:42:41.990Z,18.30
2018-06-12T19:45:12.043Z,18.30
2018-06-12T19:47:41.248Z,18.39
2018-06-12T19:50:10.559Z,18.41
2018-06-12T19:52:39.818Z,18.37
2018-06-12T19:55:09.070Z,18.36
2018-06-12T19:57:38.231Z,18.29
2018-06-12T20:00:07.422Z,18.32
2018-06-12T20:02:36.606Z,18.38
2018-06-12T20:05:05.762Z,18.39
2018-06-12T20:07:34.931Z,18.42
2018-06-12T20:10:04.040Z,18.49
2018-06-12T20:12:33.210Z,18.34
2018-06-12T20:15:03.055Z,18.10
2018-06-12T20:17:32.632Z,18.13
2018-06-12T20:20:01.766Z,18.10
2018-06-12T20:22:30.865Z,18.08
2018-06-12T20:25:00.051Z,18.18
2018-06-12T20:27:29.591Z,18.18
2018-06-12T20:29:58.719Z,18.30
2018-06-12T20:32:28.634Z,18.34
2018-06-12T20:34:57.834Z,18.33
2018-06-12T20:37:26.998Z,18.20
2018-06-12T20:40:02.816Z,18.22
2018-06-12T20:42:31.914Z,18.25
2018-06-12T20:45:01.207Z,18.27
2018-06-12T20:47:30.313Z,18.17
2018-06-12T20:49:59.434Z,18.20
2018-06-12T20:52:28.579Z,18.27
2018-06-12T20:54:57.699Z,18.52
2018-06-12T20:57:26.852Z,18.67
2018-06-12T20:59:55.972Z,18.71
2018-06-12T21:02:25.076Z,18.69
2018-06-12T21:04:54.343Z,18.83
2018-06-12T21:07:24.152Z,18.78
2018-06-12T21:09:53.287Z,18.52
2018-06-12T21:12:22.744Z,18.74
2018-06-12T21:14:52.058Z,18.77
2018-06-12T21:17:21.265Z,18.67
2018-06-12T21:19:50.497Z,18.52
2018-06-12T21:22:19.975Z,18.34
2018-06-12T21:24:49.701Z,18.05
2018-06-12T21:27:18.876Z,17.93
2018-06-12T21:29:48.118Z,17.84
2018-06-12T21:32:18.604Z,17.81
2018-06-12T21:34:49.002Z,17.77
2018-06-12T21:37:18.340Z,17.82
2018-06-12T21:39:48.143Z,17.82
2018-06-12T21:42:17.353Z,17.96
2018-06-12T21:44:46.442Z,17.98
2018-06-12T21:47:16.107Z,17.98
2018-06-12T21:49:45.214Z,17.98
2018-06-12T21:52:14.391Z,17.96
2018-06-12T21:54:43.629Z,17.92
2018-06-12T21:57:12.773Z,17.77
2018-06-12T21:59:41.935Z,17.81
2018-06-12T22:02:11.142Z,17.81
2018-06-12T22:04:40.343Z,17.79
2018-06-12T22:07:09.620Z,17.91
2018-06-12T22:09:38.757Z,17.95
2018-06-12T22:12:07.906Z,17.99
2018-06-12T22:14:37.126Z,18.02
2018-06-12T22:17:06.296Z,17.87
2018-06-12T22:19:35.510Z,17.81
2018-06-12T22:22:04.640Z,17.75
2018-06-12T22:24:33.809Z,17.68
2018-06-12T22:27:02.915Z,17.67
2018-06-12T22:29:32.085Z,17.00
2018-06-12T22:32:01.232Z,17.74
2018-06-12T22:34:30.342Z,17.78
2018-06-12T22:36:59.529Z,17.57
2018-06-12T22:39:28.713Z,17.47
2018-06-12T22:41:57.956Z,17.58
2018-06-12T22:44:27.108Z,17.41
2018-06-12T22:46:56.354Z,17.25
2018-06-12T22:49:25.448Z,17.27
2018-06-12T22:51:54.593Z,17.22
2018-06-12T22:54:23.766Z,17.22
2018-06-12T22:56:52.940Z,17.24
2018-06-12T22:59:22.168Z,17.25
2018-06-12T23:01:51.379Z,17.33
2018-06-12T23:04:20.568Z,17.38
2018-06-12T23:06:49.740Z,17.30
2018-06-12T23:09:18.871Z,17.27
2018-06-12T23:11:48.071Z,17.27
2018-06-12T23:14:17.198Z,17.28
2018-06-12T23:16:46.332Z,17.31
2018-06-12T23:19:15.442Z,17.37
2018-06-12T23:21:55.887Z,17.34
2018-06-12T23:24:25.088Z,17.25
2018-06-12T23:26:54.292Z,17.25
2018-06-12T23:29:23.400Z,17.23
2018-06-12T23:31:52.519Z,17.19
2018-06-12T23:34:21.658Z,17.21
2018-06-12T23:36:50.914Z,17.30
2018-06-12T23:39:20.088Z,17.37
2018-06-12T23:41:49.077Z,17.32
2018-06-12T23:44:18.783Z,17.29
2018-06-12T23:46:47.917Z,17.24
2018-06-12T23:49:17.034Z,17.22
2018-06-12T23:51:46.158Z,17.31
2018-06-12T23:54:15.429Z,17.32
2018-06-12T23:56:44.851Z,17.31
2018-06-12T23:59:13.952Z,17.54
